createdAt,value
2019-01-10T00:00:12.486Z,82.52
2019-01-10T00:02:43.147Z,82.79
2019-01-10T00:05:17.261Z,83.51
2019-01-10T00:07:57.654Z,83.56
2019-01-10T00:10:36.565Z,82.22
2019-01-10T00:13:11.896Z,83.10
2019-01-10T00:15:40.981Z,84.15
2019-01-10T00:18:10.065Z,83.77
2019-01-10T00:20:39.177Z,82.83
2019-01-10T00:23:09.825Z,81.79
2019-01-10T00:25:38.921Z,83.05
2019-01-10T00:28:10.836Z,83.21
2019-01-10T00:30:40.519Z,83.57
2019-01-10T00:33:09.613Z,82.61
2019-01-10T00:35:38.724Z,83.31
2019-01-10T00:38:10.646Z,82.81
2019-01-10T00:40:39.739Z,81.81
2019-01-10T00:43:10.417Z,82.99
2019-01-10T00:45:39.531Z,82.76
2019-01-10T00:48:08.601Z,81.97
2019-01-10T00:50:38.067Z,81.21
2019-01-10T00:53:07.144Z,81.05
2019-01-10T00:55:40.460Z,82.53
2019-01-10T00:58:12.588Z,83.12
2019-01-10T01:00:44.480Z,84.84
2019-01-10T01:03:16.006Z,84.70
2019-01-10T01:05:46.565Z,82.78
2019-01-10T01:08:17.399Z,83.22
2019-01-10T01:10:49.477Z,82.66
2019-01-10T01:13:21.532Z,85.44
2019-01-10T01:15:52.143Z,85.22
2019-01-10T01:18:21.310Z,84.25
2019-01-10T01:20:54.077Z,84.67
2019-01-10T01:23:35.392Z,84.56
2019-01-10T01:26:04.521Z,84.81
2019-01-10T01:28:33.592Z,84.31
2019-01-10T01:31:02.689Z,83.12
2019-01-10T01:33:33.047Z,82.24
2019-01-10T01:36:03.254Z,82.71
2019-01-10T01:38:32.330Z,83.21
2019-01-10T01:41:03.927Z,82.96
2019-01-10T01:43:34.442Z,82.18
2019-01-10T01:46:07.779Z,81.78
2019-01-10T01:48:40.513Z,80.79
2019-01-10T01:51:12.000Z,80.23
2019-01-10T01:53:42.848Z,78.41
2019-01-10T01:56:17.275Z,81.25
2019-01-10T01:58:46.351Z,82.66
2019-01-10T02:01:15.451Z,83.39
2019-01-10T02:03:44.570Z,82.85
2019-01-10T02:06:15.314Z,82.33
2019-01-10T02:08:49.612Z,82.23
2019-01-10T02:11:20.184Z,81.58
2019-01-10T02:13:50.945Z,82.06
2019-01-10T02:16:20.024Z,83.69
2019-01-10T02:18:49.250Z,84.09
2019-01-10T02:21:20.192Z,85.29
2019-01-10T02:23:50.782Z,83.74
2019-01-10T02:26:19.942Z,83.14
2019-01-10T02:28:49.050Z,83.71
2019-01-10T02:31:18.147Z,81.41
2019-01-10T02:33:47.242Z,80.23
2019-01-10T02:36:16.346Z,79.75
2019-01-10T02:38:49.627Z,78.91
2019-01-10T02:41:18.722Z,80.03
2019-01-10T02:43:47.793Z,82.00
2019-01-10T02:46:19.500Z,83.00
2019-01-10T02:48:48.981Z,83.14
2019-01-10T02:51:18.430Z,83.32
2019-01-10T02:53:48.889Z,83.26
2019-01-10T02:56:18.049Z,83.65
2019-01-10T02:58:48.712Z,83.75
2019-01-10T03:01:17.798Z,83.76
2019-01-10T03:03:46.881Z,84.00
2019-01-10T03:06:16.003Z,82.90
2019-01-10T03:08:46.148Z,82.06
2019-01-10T03:11:16.249Z,81.43
2019-01-10T03:13:46.676Z,81.83
2019-01-10T03:16:17.902Z,82.93
2019-01-10T03:18:53.453Z,82.80
2019-01-10T03:21:24.203Z,83.04
2019-01-10T03:23:56.067Z,82.19
2019-01-10T03:26:31.119Z,80.99
2019-01-10T03:29:05.460Z,82.89
2019-01-10T03:31:34.702Z,82.16
2019-01-10T03:34:05.446Z,82.48
2019-01-10T03:36:37.503Z,81.39
2019-01-10T03:39:09.249Z,79.98
2019-01-10T03:41:42.194Z,80.86
2019-01-10T03:44:13.168Z,82.51
2019-01-10T03:46:43.687Z,83.20
2019-01-10T03:49:23.008Z,83.88
2019-01-10T03:51:53.456Z,82.53
2019-01-10T03:54:29.520Z,81.76
2019-01-10T03:56:58.629Z,81.63
2019-01-10T03:59:29.439Z,83.72
2019-01-10T04:01:58.523Z,84.29
2019-01-10T04:04:28.694Z,82.66
2019-01-10T04:06:57.787Z,82.80
2019-01-10T04:09:27.315Z,83.06
2019-01-10T04:11:56.464Z,82.10
2019-01-10T04:14:25.901Z,81.04
2019-01-10T04:16:59.175Z,80.57
2019-01-10T04:19:35.412Z,79.42
2019-01-10T04:22:04.533Z,82.07
2019-01-10T04:24:38.106Z,82.17
2019-01-10T04:27:08.370Z,84.50
2019-01-10T04:29:37.675Z,84.75
2019-01-10T04:32:09.945Z,84.12
2019-01-10T04:34:39.071Z,83.45
2019-01-10T04:37:08.182Z,83.29
2019-01-10T04:39:37.638Z,82.60
2019-01-10T04:42:06.706Z,81.69
2019-01-10T04:44:44.183Z,82.69
2019-01-10T04:47:13.476Z,83.02
2019-01-10T04:49:44.038Z,83.54
2019-01-10T04:52:15.287Z,82.07
2019-01-10T04:54:47.415Z,83.01
2019-01-10T04:57:25.521Z,81.15
2019-01-10T04:59:54.694Z,81.81
2019-01-10T05:02:23.810Z,80.96
2019-01-10T05:04:54.306Z,80.75
2019-01-10T05:07:23.442Z,81.25
2019-01-10T05:09:59.927Z,78.92
2019-01-10T05:12:33.507Z,78.71
2019-01-10T05:15:04.590Z,80.13
2019-01-10T05:17:35.015Z,79.76
2019-01-10T05:20:06.820Z,80.29
2019-01-10T05:22:36.022Z,81.31
2019-01-10T05:25:05.400Z,81.71
2019-01-10T05:27:34.571Z,80.99
2019-01-10T05:30:05.395Z,81.23
2019-01-10T05:32:34.607Z,80.41
2019-01-10T05:35:05.019Z,80.70
2019-01-10T05:37:35.620Z,81.86
2019-01-10T05:40:09.586Z,81.94
2019-01-10T05:42:39.019Z,80.39
2019-01-10T05:45:12.901Z,79.57
2019-01-10T05:47:43.320Z,79.94
2019-01-10T05:50:14.196Z,81.95
2019-01-10T05:52:44.713Z,80.42
2019-01-10T05:55:19.906Z,81.19
2019-01-10T05:57:51.849Z,81.36
2019-01-10T06:00:26.217Z,80.70
2019-01-10T06:02:55.468Z,83.10
2019-01-10T06:05:30.148Z,82.69
2019-01-10T06:07:59.454Z,81.41
2019-01-10T06:10:30.753Z,81.50
2019-01-10T06:13:02.493Z,81.30
2019-01-10T06:15:31.768Z,81.38
2019-01-10T06:18:08.450Z,83.02
2019-01-10T06:20:37.948Z,83.50
2019-01-10T06:23:10.730Z,82.58
2019-01-10T06:25:39.813Z,82.60
2019-01-10T06:28:09.324Z,83.50
2019-01-10T06:30:38.418Z,83.26
2019-01-10T06:33:10.269Z,83.25
2019-01-10T06:35:40.499Z,83.58
2019-01-10T06:38:13.067Z,83.13
2019-01-10T06:40:42.703Z,80.70
2019-01-10T06:43:15.047Z,82.10
2019-01-10T06:45:44.278Z,82.13
2019-01-10T06:48:13.712Z,81.07
2019-01-10T06:50:44.603Z,80.26
2019-01-10T06:53:13.917Z,78.42
2019-01-10T06:55:44.744Z,80.31
2019-01-10T06:58:16.562Z,78.93
2019-01-10T07:00:46.004Z,78.64
2019-01-10T07:03:21.755Z,79.45
2019-01-10T07:05:51.072Z,76.67
2019-01-10T07:08:25.764Z,78.47
2019-01-10T07:10:58.764Z,79.99
2019-01-10T07:13:36.019Z,80.69
2019-01-10T07:16:10.168Z,78.38
2019-01-10T07:18:40.007Z,80.07
2019-01-10T07:21:11.221Z,78.69
2019-01-10T07:23:46.308Z,79.19
2019-01-10T07:26:19.411Z,79.28
2019-01-10T07:28:49.226Z,79.74
2019-01-10T07:31:28.804Z,80.30
2019-01-10T07:34:01.954Z,81.37
2019-01-10T07:36:31.476Z,81.71
2019-01-10T07:39:00.759Z,80.57
2019-01-10T07:41:30.976Z,80.60
2019-01-10T07:44:00.185Z,81.67
2019-01-10T07:46:31.050Z,82.08
2019-01-10T07:49:00.417Z,80.71
2019-01-10T07:51:45.691Z,80.90
2019-01-10T07:54:15.431Z,79.81
2019-01-10T07:56:44.616Z,80.31
2019-01-10T07:59:18.985Z,81.14
2019-01-10T08:01:48.680Z,79.20
2019-01-10T08:04:19.385Z,80.75
2019-01-10T08:06:49.773Z,81.11
2019-01-10T08:09:20.059Z,81.31
2019-01-10T08:12:00.193Z,81.14
2019-01-10T08:14:24.113Z,80.13
2019-01-10T08:16:55.887Z,81.26
2019-01-10T08:19:27.325Z,81.26
2019-01-10T08:21:59.808Z,79.38
2019-01-10T08:24:28.974Z,78.64
2019-01-10T08:26:58.430Z,80.30
2019-01-10T08:29:27.881Z,80.69
2019-01-10T08:32:04.157Z,79.78
2019-01-10T08:34:37.210Z,79.84
2019-01-10T08:37:06.308Z,78.81
2019-01-10T08:39:42.303Z,79.06
2019-01-10T08:42:13.200Z,77.96
2019-01-10T08:44:45.617Z,77.85
2019-01-10T08:47:17.944Z,77.79
2019-01-10T08:49:47.111Z,75.45
2019-01-10T08:52:18.770Z,75.59
2019-01-10T08:54:47.982Z,77.47
2019-01-10T08:57:18.719Z,78.18
2019-01-10T08:59:51.657Z,77.68
2019-01-10T09:02:21.418Z,76.86
2019-01-10T09:04:50.492Z,75.24
2019-01-10T09:07:21.468Z,78.00
2019-01-10T09:09:50.579Z,78.55
2019-01-10T09:12:21.679Z,77.40
2019-01-10T09:14:52.509Z,74.27
2019-01-10T09:17:23.636Z,77.06
2019-01-10T09:19:55.802Z,75.58
2019-01-10T09:22:27.960Z,76.61
2019-01-10T09:24:59.424Z,76.19
2019-01-10T09:27:28.773Z,75.15
2019-01-10T09:29:59.029Z,75.35
2019-01-10T09:32:28.748Z,76.46
2019-01-10T09:34:58.249Z,74.76
2019-01-10T09:37:27.555Z,76.62
2019-01-10T09:40:17.636Z,76.95
2019-01-10T09:42:47.007Z,76.29
2019-01-10T09:45:18.805Z,77.89
2019-01-10T09:48:01.931Z,76.72
2019-01-10T09:50:33.925Z,77.95
2019-01-10T09:53:06.353Z,75.91
2019-01-10T09:55:36.714Z,75.32
2019-01-10T09:58:10.571Z,77.77
2019-01-10T10:00:41.489Z,76.00
2019-01-10T10:03:11.990Z,77.40
2019-01-10T10:05:46.661Z,77.13
2019-01-10T10:08:15.987Z,78.57
2019-01-10T10:10:45.053Z,77.33
2019-01-10T10:13:20.248Z,78.33
2019-01-10T10:15:52.654Z,77.71
2019-01-10T10:18:20.168Z,75.93
2019-01-10T10:20:49.367Z,75.83
2019-01-10T10:23:26.733Z,76.61
2019-01-10T10:25:52.598Z,79.16
2019-01-10T10:28:25.731Z,75.90
2019-01-10T10:30:55.349Z,74.65
2019-01-10T10:33:24.768Z,74.42
2019-01-10T10:35:56.705Z,73.61
2019-01-10T10:38:28.245Z,75.87
2019-01-10T10:40:58.950Z,76.23
2019-01-10T10:43:28.563Z,77.29
2019-01-10T10:46:01.766Z,78.42
2019-01-10T10:48:29.818Z,77.82
2019-01-10T10:50:58.882Z,78.94
2019-01-10T10:53:28.236Z,79.85
2019-01-10T10:55:58.999Z,79.49
2019-01-10T10:58:28.580Z,79.25
2019-01-10T11:01:03.620Z,78.76
2019-01-10T11:03:34.504Z,77.86
2019-01-10T11:06:05.741Z,76.92
2019-01-10T11:08:42.216Z,78.27
2019-01-10T11:11:14.164Z,77.48
2019-01-10T11:13:43.400Z,77.80
2019-01-10T11:16:13.063Z,78.08
2019-01-10T11:18:45.516Z,78.02
2019-01-10T11:21:15.948Z,77.87
2019-01-10T11:23:47.118Z,76.60
2019-01-10T11:26:16.319Z,77.28
2019-01-10T11:28:45.776Z,77.03
2019-01-10T11:31:14.951Z,77.20
2019-01-10T11:33:44.158Z,75.57
2019-01-10T11:36:14.531Z,74.33
2019-01-10T11:38:45.589Z,74.74
2019-01-10T11:41:16.355Z,75.27
2019-01-10T11:43:48.614Z,75.40
2019-01-10T11:46:20.656Z,77.70
2019-01-10T11:48:51.290Z,72.55
2019-01-10T11:51:20.817Z,73.11
2019-01-10T11:53:52.449Z,74.08
2019-01-10T11:56:21.628Z,74.20
2019-01-10T11:58:51.025Z,73.72
2019-01-10T12:01:20.209Z,74.18
2019-01-10T12:03:56.925Z,74.45
2019-01-10T12:06:25.782Z,74.95
2019-01-10T12:08:54.867Z,74.85
2019-01-10T12:11:23.986Z,72.80
2019-01-10T12:13:56.011Z,74.09
2019-01-10T12:16:28.644Z,74.26
2019-01-10T12:18:59.637Z,75.48
2019-01-10T12:21:31.386Z,73.22
2019-01-10T12:24:01.674Z,73.63
2019-01-10T12:26:34.738Z,73.04
2019-01-10T12:29:04.105Z,73.43
2019-01-10T12:31:38.442Z,72.63
2019-01-10T12:34:07.579Z,73.85
2019-01-10T12:36:38.054Z,72.50
2019-01-10T12:39:09.075Z,73.57
2019-01-10T12:41:41.191Z,74.41
2019-01-10T12:44:10.497Z,75.21
2019-01-10T12:46:42.630Z,75.66
2019-01-10T12:49:12.082Z,74.64
2019-01-10T12:51:41.183Z,75.17
2019-01-10T12:54:10.302Z,75.88
2019-01-10T12:56:39.414Z,74.91
2019-01-10T12:59:09.554Z,76.39
2019-01-10T13:01:39.140Z,74.51
2019-01-10T13:04:08.411Z,73.92
2019-01-10T13:06:37.624Z,73.24
2019-01-10T13:09:10.082Z,73.19
2019-01-10T13:11:41.883Z,75.30
2019-01-10T13:14:10.994Z,75.75
2019-01-10T13:16:46.655Z,72.88
2019-01-10T13:19:17.067Z,72.63
2019-01-10T13:21:48.853Z,72.16
2019-01-10T13:24:18.804Z,72.53
2019-01-10T13:26:47.971Z,73.10
2019-01-10T13:29:18.301Z,74.12
2019-01-10T13:31:52.156Z,75.17
2019-01-10T13:34:21.351Z,75.68
2019-01-10T13:36:50.456Z,77.62
2019-01-10T13:39:20.984Z,76.40
2019-01-10T13:41:53.074Z,74.35
2019-01-10T13:44:23.407Z,74.97
2019-01-10T13:46:55.818Z,77.39
2019-01-10T13:49:23.610Z,76.66
2019-01-10T13:51:52.821Z,76.38
2019-01-10T13:54:24.446Z,75.46
2019-01-10T13:56:53.871Z,75.43
2019-01-10T13:59:26.134Z,75.44
2019-01-10T14:01:55.409Z,75.73
2019-01-10T14:04:24.752Z,74.19
2019-01-10T14:06:53.859Z,73.78
2019-01-10T14:09:23.300Z,74.60
2019-01-10T14:11:52.921Z,74.14
2019-01-10T14:14:22.520Z,71.95
2019-01-10T14:16:55.373Z,73.51
2019-01-10T14:19:28.568Z,71.66
2019-01-10T14:22:01.138Z,73.29
2019-01-10T14:24:34.225Z,73.70
2019-01-10T14:27:05.329Z,73.20
2019-01-10T14:29:34.425Z,71.09
2019-01-10T14:32:03.512Z,71.12
2019-01-10T14:34:32.711Z,73.28
2019-01-10T14:37:01.819Z,73.37
2019-01-10T14:39:31.340Z,75.10
2019-01-10T14:42:05.035Z,74.64
2019-01-10T14:44:35.901Z,74.24
2019-01-10T14:47:07.743Z,73.05
2019-01-10T14:49:38.804Z,73.95
2019-01-10T14:52:11.963Z,73.85
2019-01-10T14:54:41.108Z,73.64
2019-01-10T14:57:11.370Z,74.93
2019-01-10T14:59:43.554Z,76.85
2019-01-10T15:02:12.654Z,76.17
2019-01-10T15:04:44.453Z,75.69
2019-01-10T15:07:16.104Z,76.76
2019-01-10T15:09:45.938Z,77.35
2019-01-10T15:12:15.379Z,77.59
2019-01-10T15:14:44.539Z,76.41
2019-01-10T15:17:15.900Z,76.55
2019-01-10T15:19:47.524Z,76.72
2019-01-10T15:22:19.620Z,77.44
2019-01-10T15:24:48.799Z,74.40
2019-01-10T15:27:17.929Z,73.21
2019-01-10T15:29:48.377Z,74.35
2019-01-10T15:32:20.942Z,75.00
2019-01-10T15:34:50.064Z,73.80
2019-01-10T15:37:23.774Z,74.75
2019-01-10T15:39:53.105Z,73.27
2019-01-10T15:42:22.288Z,71.75
2019-01-10T15:44:55.148Z,71.60
2019-01-10T15:47:24.357Z,72.69
2019-01-10T15:49:53.843Z,73.30
2019-01-10T15:52:22.996Z,72.44
2019-01-10T15:54:54.562Z,72.56
2019-01-10T15:57:25.055Z,72.38
2019-01-10T15:59:56.102Z,70.44
2019-01-10T16:02:26.964Z,71.12
2019-01-10T16:04:56.301Z,71.92
2019-01-10T16:07:27.764Z,71.53
2019-01-10T16:09:59.931Z,70.32
2019-01-10T16:12:29.450Z,72.80
2019-01-10T16:15:01.061Z,70.61
2019-01-10T16:17:30.180Z,71.99
2019-01-10T16:19:59.676Z,72.31
2019-01-10T16:22:29.663Z,71.38
2019-01-10T16:24:58.801Z,70.34
2019-01-10T16:27:30.350Z,69.44
2019-01-10T16:29:59.435Z,67.85
2019-01-10T16:32:29.439Z,67.62
2019-01-10T16:34:58.616Z,67.53
2019-01-10T16:37:27.674Z,67.36
2019-01-10T16:39:58.221Z,67.93
2019-01-10T16:42:27.299Z,66.36
2019-01-10T16:44:58.971Z,65.91
2019-01-10T16:47:31.600Z,65.04
2019-01-10T16:49:58.883Z,65.48
2019-01-10T16:52:27.967Z,65.35
2019-01-10T16:54:57.338Z,66.58
2019-01-10T16:57:29.473Z,64.89
2019-01-10T16:59:59.505Z,64.94
2019-01-10T17:02:36.158Z,65.49
2019-01-10T17:05:02.743Z,66.87
2019-01-10T17:07:34.309Z,65.93
2019-01-10T17:10:03.454Z,65.75
2019-01-10T17:12:33.060Z,64.05
2019-01-10T17:15:06.440Z,64.13
2019-01-10T17:17:44.321Z,63.25
2019-01-10T17:20:27.853Z,63.95
2019-01-10T17:22:58.693Z,62.87
2019-01-10T17:25:28.202Z,63.03
2019-01-10T17:28:01.490Z,65.82
2019-01-10T17:30:31.394Z,66.62
2019-01-10T17:33:02.436Z,67.53
2019-01-10T17:35:33.328Z,67.30
2019-01-10T17:38:03.571Z,66.00
2019-01-10T17:40:34.884Z,66.40
2019-01-10T17:43:07.604Z,66.71
2019-01-10T17:45:43.265Z,64.61
2019-01-10T17:48:14.574Z,68.31
2019-01-10T17:50:43.694Z,68.61
2019-01-10T17:53:13.914Z,67.47
2019-01-10T17:55:44.850Z,68.15
2019-01-10T17:58:13.933Z,67.96
2019-01-10T18:00:43.170Z,69.72
2019-01-10T18:03:12.453Z,70.71
2019-01-10T18:05:44.507Z,69.00
2019-01-10T18:08:16.540Z,68.68
2019-01-10T18:10:48.750Z,68.02
2019-01-10T18:13:18.243Z,67.27
2019-01-10T18:15:48.453Z,66.45
2019-01-10T18:18:20.936Z,68.45
2019-01-10T18:20:50.053Z,67.99
2019-01-10T18:23:19.228Z,67.86
2019-01-10T18:25:48.328Z,67.13
2019-01-10T18:28:17.494Z,66.48
2019-01-10T18:30:46.599Z,67.53
2019-01-10T18:33:18.987Z,68.69
2019-01-10T18:35:50.505Z,68.78
2019-01-10T18:38:20.636Z,68.48
2019-01-10T18:40:52.104Z,68.59
2019-01-10T18:43:25.584Z,67.24
2019-01-10T18:45:54.754Z,68.11
2019-01-10T18:48:23.964Z,68.22
2019-01-10T18:50:54.859Z,68.77
2019-01-10T18:53:24.004Z,68.63
2019-01-10T18:55:53.896Z,68.08
2019-01-10T18:58:25.785Z,68.92
2019-01-10T19:00:58.613Z,68.91
2019-01-10T19:03:28.097Z,68.79
2019-01-10T19:05:57.285Z,68.86
2019-01-10T19:08:26.379Z,67.53
2019-01-10T19:10:58.182Z,66.71
2019-01-10T19:13:35.395Z,64.08
2019-01-10T19:16:04.502Z,62.11
2019-01-10T19:18:33.596Z,61.75
2019-01-10T19:21:03.044Z,61.52
2019-01-10T19:23:32.341Z,61.42
2019-01-10T19:26:03.140Z,62.17
2019-01-10T19:28:32.236Z,61.00
2019-01-10T19:31:01.372Z,62.51
2019-01-10T19:33:35.771Z,60.90
2019-01-10T19:36:05.071Z,61.30
2019-01-10T19:38:34.212Z,61.13
2019-01-10T19:41:03.323Z,61.85
2019-01-10T19:43:32.412Z,61.21
2019-01-10T19:46:01.652Z,60.43
2019-01-10T19:48:30.782Z,60.42
2019-01-10T19:51:01.091Z,60.36
2019-01-10T19:53:33.383Z,57.39
2019-01-10T19:56:02.482Z,57.96
2019-01-10T19:58:33.287Z,59.29
2019-01-10T20:01:07.108Z,58.29
2019-01-10T20:03:38.414Z,57.22
2019-01-10T20:06:08.892Z,57.32
2019-01-10T20:08:37.982Z,56.04
2019-01-10T20:11:08.928Z,55.48
2019-01-10T20:13:38.338Z,59.24
2019-01-10T20:16:07.708Z,59.98
2019-01-10T20:18:37.065Z,59.96
2019-01-10T20:21:06.354Z,57.51
2019-01-10T20:23:36.822Z,59.34
2019-01-10T20:26:09.246Z,58.99
2019-01-10T20:28:42.120Z,58.31
2019-01-10T20:31:11.625Z,56.78
2019-01-10T20:33:41.423Z,57.59
2019-01-10T20:36:10.708Z,55.82
2019-01-10T20:38:41.580Z,55.85
2019-01-10T20:41:12.426Z,56.25
2019-01-10T20:43:41.584Z,56.52
2019-01-10T20:46:10.673Z,54.90
2019-01-10T20:48:39.822Z,55.53
2019-01-10T20:51:09.099Z,57.31
2019-01-10T20:53:40.845Z,55.76
2019-01-10T20:56:09.996Z,54.51
2019-01-10T20:58:39.278Z,54.63
2019-01-10T21:01:13.013Z,54.00
2019-01-10T21:03:42.150Z,54.30
2019-01-10T21:06:12.399Z,55.24
2019-01-10T21:08:41.459Z,56.85
2019-01-10T21:11:10.656Z,56.74
2019-01-10T21:13:41.315Z,58.12
2019-01-10T21:16:10.914Z,57.35
2019-01-10T21:18:41.752Z,56.41
2019-01-10T21:21:13.935Z,56.21
2019-01-10T21:23:43.027Z,55.79
2019-01-10T21:26:14.035Z,57.08
2019-01-10T21:28:43.139Z,56.14
2019-01-10T21:31:15.068Z,57.09
2019-01-10T21:33:45.684Z,56.60
2019-01-10T21:36:14.882Z,57.41
2019-01-10T21:38:43.991Z,56.13
2019-01-10T21:41:13.184Z,57.57
2019-01-10T21:43:47.164Z,58.78
2019-01-10T21:46:16.358Z,59.27
2019-01-10T21:48:47.027Z,59.73
2019-01-10T21:51:16.253Z,59.81
2019-01-10T21:53:45.357Z,60.79
2019-01-10T21:56:14.454Z,58.18
2019-01-10T21:58:44.988Z,58.72
2019-01-10T22:01:17.019Z,58.25
2019-01-10T22:03:51.103Z,58.58
2019-01-10T22:06:22.946Z,58.38
2019-01-10T22:08:57.126Z,59.13
2019-01-10T22:11:26.318Z,59.64
2019-01-10T22:13:57.861Z,58.86
2019-01-10T22:16:26.961Z,57.16
2019-01-10T22:18:56.069Z,58.47
2019-01-10T22:21:31.356Z,58.54
2019-01-10T22:24:02.042Z,58.82
2019-01-10T22:26:31.128Z,58.71
2019-01-10T22:29:00.309Z,57.54
2019-01-10T22:31:29.407Z,57.89
2019-01-10T22:33:58.509Z,57.42
2019-01-10T22:36:31.429Z,56.56
2019-01-10T22:39:00.549Z,57.40
2019-01-10T22:41:30.309Z,57.88
2019-01-10T22:44:02.528Z,56.39
2019-01-10T22:46:31.676Z,56.99
2019-01-10T22:49:02.655Z,58.13
2019-01-10T22:51:31.760Z,57.82
2019-01-10T22:54:00.824Z,60.41
2019-01-10T22:56:31.991Z,59.77
2019-01-10T22:59:00.874Z,59.47
2019-01-10T23:01:51.927Z,58.91
2019-01-10T23:04:33.250Z,60.94
2019-01-10T23:07:10.156Z,60.77
2019-01-10T23:09:39.342Z,59.25
2019-01-10T23:12:13.411Z,61.88
2019-01-10T23:14:44.152Z,64.62
2019-01-10T23:17:15.853Z,64.19
2019-01-10T23:19:57.410Z,62.17
2019-01-10T23:22:26.514Z,63.27
2019-01-10T23:25:02.221Z,66.68
2019-01-10T23:27:33.596Z,67.42
2019-01-10T23:30:02.697Z,68.20
2019-01-10T23:32:31.935Z,66.23
2019-01-10T23:35:01.050Z,67.30
2019-01-10T23:37:32.251Z,67.73
2019-01-10T23:40:01.347Z,67.05
2019-01-10T23:42:32.122Z,63.79
2019-01-10T23:45:01.205Z,65.20
2019-01-10T23:47:30.343Z,62.12
2019-01-10T23:49:59.541Z,61.67
2019-01-10T23:52:31.141Z,60.49
2019-01-10T23:55:00.255Z,62.12
2019-01-10T23:57:29.953Z,63.44
